createdAt,value
2022-09-15T00:00:42.290Z,13.41
2022-09-15T00:01:42.353Z,13.41
2022-09-15T00:02:42.287Z,13.42
2022-09-15T00:03:42.253Z,13.39
2022-09-15T00:04:42.246Z,13.38
2022-09-15T00:05:42.220Z,13.39
2022-09-15T00:06:42.221Z,13.37
2022-09-15T00:07:42.232Z,13.35
2022-09-15T00:08:42.191Z,13.33
2022-09-15T00:09:42.161Z,13.33
2022-09-15T00:10:42.161Z,13.33
2022-09-15T00:11:42.164Z,13.33
2022-09-15T00:12:42.140Z,13.31
2022-09-15T00:13:42.127Z,13.30
2022-09-15T00:14:42.105Z,13.31
2022-09-15T00:15:42.089Z,13.31
2022-09-15T00:16:42.164Z,13.30
2022-09-15T00:17:42.062Z,13.28
2022-09-15T00:18:42.053Z,13.28
2022-09-15T00:19:42.081Z,13.28
2022-09-15T00:20:42.030Z,13.28
2022-09-15T00:21:42.059Z,13.27
2022-09-15T00:22:42.000Z,13.27
2022-09-15T00:23:41.986Z,13.27
2022-09-15T00:24:41.970Z,13.27
2022-09-15T00:25:41.959Z,13.25
2022-09-15T00:26:41.960Z,13.27
2022-09-15T00:27:41.928Z,13.25
2022-09-15T00:28:41.932Z,13.23
2022-09-15T00:29:41.911Z,13.23
2022-09-15T00:30:41.941Z,13.22
2022-09-15T00:31:41.888Z,13.22
2022-09-15T00:32:41.869Z,13.19
2022-09-15T00:33:41.856Z,13.18
2022-09-15T00:34:41.847Z,13.19
2022-09-15T00:35:41.828Z,13.18
2022-09-15T00:36:41.829Z,13.18
2022-09-15T00:37:41.798Z,13.18
2022-09-15T00:38:41.796Z,13.15
2022-09-15T00:39:41.777Z,13.15
2022-09-15T00:40:41.781Z,13.15
2022-09-15T00:41:41.768Z,13.15
2022-09-15T00:42:41.749Z,13.13
2022-09-15T00:43:41.819Z,13.13
2022-09-15T00:44:41.717Z,13.12
2022-09-15T00:45:41.772Z,13.12
2022-09-15T00:46:41.697Z,13.12
2022-09-15T00:47:41.676Z,13.11
2022-09-15T00:48:41.671Z,13.09
2022-09-15T00:49:41.649Z,13.12
2022-09-15T00:50:41.636Z,13.09
2022-09-15T00:51:41.628Z,13.09
2022-09-15T00:52:41.616Z,13.12
2022-09-15T00:53:41.589Z,13.05
2022-09-15T00:54:41.608Z,13.09
2022-09-15T00:55:41.571Z,13.04
2022-09-15T00:56:41.575Z,13.04
2022-09-15T00:57:41.556Z,13.05
2022-09-15T00:58:41.535Z,13.04
2022-09-15T00:59:41.520Z,13.03
2022-09-15T01:00:41.506Z,13.03
2022-09-15T01:01:41.599Z,13.01
2022-09-15T01:02:41.563Z,13.03
2022-09-15T01:03:41.465Z,12.98
2022-09-15T01:04:41.456Z,13.00
2022-09-15T01:05:41.435Z,12.98
2022-09-15T01:06:41.425Z,12.98
2022-09-15T01:07:41.428Z,12.97
2022-09-15T01:08:41.462Z,12.98
2022-09-15T01:09:41.385Z,12.95
2022-09-15T01:10:41.385Z,12.94
2022-09-15T01:11:41.394Z,12.94
2022-09-15T01:12:41.365Z,12.94
2022-09-15T01:13:41.337Z,12.94
2022-09-15T01:14:41.325Z,12.94
2022-09-15T01:15:41.314Z,12.91
2022-09-15T01:16:41.346Z,12.87
2022-09-15T01:17:41.284Z,12.90
2022-09-15T01:18:41.276Z,12.87
2022-09-15T01:19:41.253Z,12.87
2022-09-15T01:20:41.255Z,12.85
2022-09-15T01:21:41.234Z,12.85
2022-09-15T01:22:41.234Z,12.85
2022-09-15T01:23:41.236Z,12.85
2022-09-15T01:24:41.204Z,12.83
2022-09-15T01:25:41.180Z,12.80
2022-09-15T01:26:41.167Z,12.82
2022-09-15T01:27:42.839Z,12.79
2022-09-15T01:28:43.425Z,12.78
2022-09-15T01:29:41.123Z,12.78
2022-09-15T01:30:41.136Z,12.78
2022-09-15T01:31:41.135Z,12.78
2022-09-15T01:32:41.102Z,12.75
2022-09-15T01:33:41.124Z,12.76
2022-09-15T01:34:41.122Z,12.75
2022-09-15T01:35:41.054Z,12.76
2022-09-15T01:36:41.043Z,12.75
2022-09-15T01:37:41.033Z,12.73
2022-09-15T01:38:41.060Z,12.72
2022-09-15T01:39:40.992Z,12.72
2022-09-15T01:40:41.023Z,12.72
2022-09-15T01:41:40.962Z,12.70
2022-09-15T01:42:40.972Z,12.73
2022-09-15T01:43:40.958Z,12.68
2022-09-15T01:44:40.933Z,12.64
2022-09-15T01:45:40.990Z,12.64
2022-09-15T01:46:40.913Z,12.65
2022-09-15T01:47:40.902Z,12.61
2022-09-15T01:48:40.895Z,12.60
2022-09-15T01:49:40.873Z,12.58
2022-09-15T01:50:40.863Z,12.57
2022-09-15T01:51:40.842Z,12.57
2022-09-15T01:52:40.843Z,12.54
2022-09-15T01:53:40.877Z,12.53
2022-09-15T01:54:40.810Z,12.50
2022-09-15T01:55:40.797Z,12.49
2022-09-15T01:56:40.781Z,12.47
2022-09-15T01:57:40.774Z,12.49
2022-09-15T01:58:40.759Z,12.47
2022-09-15T01:59:40.730Z,12.49
2022-09-15T02:00:40.730Z,12.46
2022-09-15T02:01:40.868Z,12.45
2022-09-15T02:02:40.710Z,12.45
2022-09-15T02:03:40.700Z,12.46
2022-09-15T02:04:40.684Z,12.42
2022-09-15T02:05:40.661Z,12.45
2022-09-15T02:06:40.681Z,12.40
2022-09-15T02:07:40.640Z,12.40
2022-09-15T02:08:40.627Z,12.40
2022-09-15T02:09:40.618Z,12.39
2022-09-15T02:10:40.609Z,12.39
2022-09-15T02:11:40.588Z,12.37
2022-09-15T02:12:40.579Z,12.37
2022-09-15T02:13:40.559Z,12.36
2022-09-15T02:14:40.549Z,12.35
2022-09-15T02:15:40.530Z,12.37
2022-09-15T02:16:40.598Z,12.35
2022-09-15T02:17:40.520Z,12.32
2022-09-15T02:18:40.500Z,12.35
2022-09-15T02:19:40.479Z,12.31
2022-09-15T02:20:40.468Z,12.29
2022-09-15T02:21:40.458Z,12.31
2022-09-15T02:22:40.450Z,12.29
2022-09-15T02:23:40.502Z,12.28
2022-09-15T02:24:40.421Z,12.27
2022-09-15T02:25:40.398Z,12.28
2022-09-15T02:26:40.385Z,12.27
2022-09-15T02:27:40.388Z,12.28
2022-09-15T02:28:40.365Z,12.28
2022-09-15T02:29:40.348Z,12.27
2022-09-15T02:30:40.338Z,12.28
2022-09-15T02:31:40.377Z,12.25
2022-09-15T02:32:40.319Z,12.25
2022-09-15T02:33:40.298Z,12.24
2022-09-15T02:34:40.287Z,12.25
2022-09-15T02:35:40.269Z,12.22
2022-09-15T02:36:40.257Z,12.22
2022-09-15T02:37:40.257Z,12.22
2022-09-15T02:38:40.229Z,12.21
2022-09-15T02:39:40.216Z,12.22
2022-09-15T02:40:40.207Z,12.22
2022-09-15T02:41:40.197Z,12.18
2022-09-15T02:42:40.196Z,12.21
2022-09-15T02:43:40.167Z,12.18
2022-09-15T02:44:40.156Z,12.18
2022-09-15T02:45:40.206Z,12.18
2022-09-15T02:46:40.127Z,12.18
2022-09-15T02:47:40.135Z,12.18
2022-09-15T02:48:40.109Z,12.18
2022-09-15T02:49:40.085Z,12.17
2022-09-15T02:50:40.076Z,12.17
2022-09-15T02:51:40.067Z,12.17
2022-09-15T02:52:40.055Z,12.15
2022-09-15T02:53:40.037Z,12.13
2022-09-15T02:54:40.028Z,12.13
2022-09-15T02:55:40.025Z,12.13
2022-09-15T02:56:39.996Z,12.10
2022-09-15T02:57:40.005Z,12.10
2022-09-15T02:58:39.969Z,12.10
2022-09-15T02:59:39.965Z,12.09
2022-09-15T03:00:40.002Z,12.09
2022-09-15T03:01:39.970Z,12.07
2022-09-15T03:02:39.935Z,12.07
2022-09-15T03:03:42.902Z,12.07
2022-09-15T03:04:39.896Z,12.06
2022-09-15T03:05:39.895Z,12.06
2022-09-15T03:06:39.864Z,12.06
2022-09-15T03:07:39.865Z,12.06
2022-09-15T03:08:39.844Z,12.06
2022-09-15T03:09:39.835Z,12.07
2022-09-15T03:10:39.814Z,12.07
2022-09-15T03:11:39.795Z,12.06
2022-09-15T03:12:39.804Z,12.06
2022-09-15T03:13:39.783Z,12.06
2022-09-15T03:14:39.773Z,12.04
2022-09-15T03:15:39.745Z,12.03
2022-09-15T03:16:39.770Z,12.04
2022-09-15T03:17:39.725Z,12.02
2022-09-15T03:18:39.703Z,12.00
2022-09-15T03:19:39.697Z,12.00
2022-09-15T03:20:39.684Z,12.03
2022-09-15T03:21:39.678Z,12.00
2022-09-15T03:22:39.767Z,12.00
2022-09-15T03:23:39.653Z,11.99
2022-09-15T03:24:39.633Z,11.99
2022-09-15T03:25:39.623Z,11.97
2022-09-15T03:26:39.613Z,11.97
2022-09-15T03:27:39.630Z,11.95
2022-09-15T03:28:39.584Z,11.95
2022-09-15T03:29:39.571Z,11.95
2022-09-15T03:30:39.553Z,11.95
2022-09-15T03:31:39.574Z,11.94
2022-09-15T03:32:39.596Z,11.95
2022-09-15T03:33:39.522Z,11.91
2022-09-15T03:34:39.511Z,11.94
2022-09-15T03:35:39.491Z,11.91
2022-09-15T03:36:39.471Z,11.94
2022-09-15T03:37:39.476Z,11.91
2022-09-15T03:38:39.441Z,11.88
2022-09-15T03:39:39.430Z,11.90
2022-09-15T03:40:39.421Z,11.88
2022-09-15T03:41:39.412Z,11.90
2022-09-15T03:42:39.452Z,11.87
2022-09-15T03:43:39.392Z,11.87
2022-09-15T03:44:39.366Z,11.87
2022-09-15T03:45:39.424Z,11.88
2022-09-15T03:46:39.340Z,11.87
2022-09-15T03:47:39.330Z,11.87
2022-09-15T03:48:39.320Z,11.86
2022-09-15T03:49:39.300Z,11.86
2022-09-15T03:50:39.290Z,11.86
2022-09-15T03:51:39.288Z,11.84
2022-09-15T03:52:39.341Z,11.86
2022-09-15T03:53:39.260Z,11.86
2022-09-15T03:54:39.241Z,11.86
2022-09-15T03:55:39.220Z,11.83
2022-09-15T03:56:39.228Z,11.84
2022-09-15T03:57:39.211Z,11.84
2022-09-15T03:58:39.187Z,11.83
2022-09-15T03:59:39.179Z,11.84
2022-09-15T04:00:39.229Z,11.83
2022-09-15T04:01:39.186Z,11.83
2022-09-15T04:02:39.180Z,11.81
2022-09-15T04:03:45.214Z,11.80
2022-09-15T04:04:40.101Z,11.83
2022-09-15T04:05:39.097Z,11.80
2022-09-15T04:06:39.079Z,11.80
2022-09-15T04:07:39.077Z,11.80
2022-09-15T04:08:39.049Z,11.81
2022-09-15T04:09:39.041Z,11.78
2022-09-15T04:10:39.018Z,11.80
2022-09-15T04:11:39.018Z,11.78
2022-09-15T04:12:39.021Z,11.78
2022-09-15T04:13:38.987Z,11.80
2022-09-15T04:14:38.980Z,11.77
2022-09-15T04:15:38.967Z,11.77
2022-09-15T04:16:39.015Z,11.73
2022-09-15T04:17:38.960Z,11.77
2022-09-15T04:18:38.919Z,11.77
2022-09-15T04:19:38.907Z,11.75
2022-09-15T04:20:38.898Z,11.75
2022-09-15T04:21:38.887Z,11.73
2022-09-15T04:22:38.887Z,11.75
2022-09-15T04:23:38.856Z,11.77
2022-09-15T04:24:38.836Z,11.73
2022-09-15T04:25:38.841Z,11.73
2022-09-15T04:26:38.817Z,11.75
2022-09-15T04:27:38.816Z,11.77
2022-09-15T04:28:38.788Z,11.77
2022-09-15T04:29:38.779Z,11.75
2022-09-15T04:30:38.766Z,11.77
2022-09-15T04:31:38.827Z,11.77
2022-09-15T04:32:38.746Z,11.73
2022-09-15T04:33:38.728Z,11.77
2022-09-15T04:34:41.387Z,11.77
2022-09-15T04:35:38.696Z,11.75
2022-09-15T04:36:38.677Z,11.77
2022-09-15T04:37:38.676Z,11.75
2022-09-15T04:38:38.687Z,11.75
2022-09-15T04:39:38.645Z,11.77
2022-09-15T04:40:38.626Z,11.78
2022-09-15T04:41:38.616Z,11.78
2022-09-15T04:42:38.608Z,11.78
2022-09-15T04:43:38.625Z,11.80
2022-09-15T04:44:38.586Z,11.80
2022-09-15T04:45:38.594Z,11.78
2022-09-15T04:46:38.577Z,11.78
2022-09-15T04:47:38.554Z,11.78
2022-09-15T04:48:38.525Z,11.77
2022-09-15T04:49:38.516Z,11.78
2022-09-15T04:50:38.505Z,11.78
2022-09-15T04:51:38.485Z,11.81
2022-09-15T04:52:38.534Z,11.80
2022-09-15T04:53:38.471Z,11.78
2022-09-15T04:54:38.444Z,11.80
2022-09-15T04:55:38.445Z,11.80
2022-09-15T04:56:38.435Z,11.81
2022-09-15T04:57:38.423Z,11.81
2022-09-15T04:58:38.393Z,11.81
2022-09-15T04:59:38.385Z,11.81
2022-09-15T05:00:38.433Z,11.81
2022-09-15T05:01:38.418Z,11.83
2022-09-15T05:02:38.355Z,11.83
2022-09-15T05:03:38.334Z,11.83
2022-09-15T05:04:38.372Z,11.84
2022-09-15T05:05:38.313Z,11.86
2022-09-15T05:06:38.295Z,11.84
2022-09-15T05:07:38.301Z,11.84
2022-09-15T05:08:38.263Z,11.84
2022-09-15T05:09:38.260Z,11.86
2022-09-15T05:10:38.287Z,11.88
2022-09-15T05:11:38.249Z,11.88
2022-09-15T05:12:38.233Z,11.90
2022-09-15T05:13:38.213Z,11.90
2022-09-15T05:14:38.183Z,11.91
2022-09-15T05:15:38.252Z,11.90
2022-09-15T05:16:38.233Z,11.95
2022-09-15T05:17:38.179Z,11.97
2022-09-15T05:18:38.167Z,11.97
2022-09-15T05:19:38.143Z,11.97
2022-09-15T05:20:38.129Z,12.02
2022-09-15T05:21:38.134Z,12.00
2022-09-15T05:22:41.684Z,12.03
2022-09-15T05:23:38.096Z,12.04
2022-09-15T05:24:38.071Z,12.04
2022-09-15T05:25:38.041Z,12.06
2022-09-15T05:26:38.062Z,12.06
2022-09-15T05:27:38.101Z,12.07
2022-09-15T05:28:38.010Z,12.09
2022-09-15T05:29:38.011Z,12.09
2022-09-15T05:30:41.428Z,12.12
2022-09-15T05:31:39.120Z,12.12
2022-09-15T05:32:37.981Z,12.15
2022-09-15T05:33:37.960Z,12.15
2022-09-15T05:34:37.931Z,12.17
2022-09-15T05:35:37.946Z,12.18
2022-09-15T05:36:37.891Z,12.20
2022-09-15T05:37:37.909Z,12.21
2022-09-15T05:38:37.870Z,12.22
2022-09-15T05:39:37.872Z,12.24
2022-09-15T05:40:37.858Z,12.24
2022-09-15T05:41:37.860Z,12.25
2022-09-15T05:42:37.839Z,12.25
2022-09-15T05:43:37.827Z,12.27
2022-09-15T05:44:37.790Z,12.28
2022-09-15T05:45:37.790Z,12.31
2022-09-15T05:46:37.801Z,12.31
2022-09-15T05:47:37.759Z,12.35
2022-09-15T05:48:37.739Z,12.32
2022-09-15T05:49:37.732Z,12.32
2022-09-15T05:50:37.720Z,12.36
2022-09-15T05:51:37.722Z,12.35
2022-09-15T05:52:37.700Z,12.39
2022-09-15T05:53:37.758Z,12.39
2022-09-15T05:54:37.660Z,12.40
2022-09-15T05:55:37.649Z,12.42
2022-09-15T05:56:37.648Z,12.42
2022-09-15T05:57:37.638Z,12.43
2022-09-15T05:58:37.654Z,12.45
2022-09-15T05:59:37.612Z,12.47
2022-09-15T06:00:37.618Z,12.50
2022-09-15T06:01:37.618Z,12.54
2022-09-15T06:02:37.582Z,12.55
2022-09-15T06:03:37.560Z,12.58
2022-09-15T06:04:37.558Z,12.60
2022-09-15T06:05:37.537Z,12.64
2022-09-15T06:06:37.558Z,12.64
2022-09-15T06:07:37.528Z,12.65
2022-09-15T06:08:37.535Z,12.67
2022-09-15T06:09:37.498Z,12.70
2022-09-15T06:10:37.484Z,12.70
2022-09-15T06:11:37.450Z,12.72
2022-09-15T06:12:37.446Z,12.72
2022-09-15T06:13:37.429Z,12.73
2022-09-15T06:14:37.406Z,12.73
2022-09-15T06:15:37.398Z,12.73
2022-09-15T06:16:37.446Z,12.76
2022-09-15T06:17:37.377Z,12.78
2022-09-15T06:18:37.377Z,12.75
2022-09-15T06:19:37.366Z,12.78
2022-09-15T06:20:37.344Z,12.79
2022-09-15T06:21:37.318Z,12.78
2022-09-15T06:22:37.317Z,12.79
2022-09-15T06:23:37.303Z,12.80
2022-09-15T06:24:37.288Z,12.82
2022-09-15T06:25:37.273Z,12.83
2022-09-15T06:26:37.255Z,12.87
2022-09-15T06:27:37.245Z,12.87
2022-09-15T06:28:37.227Z,12.91
2022-09-15T06:29:37.226Z,12.91
2022-09-15T06:30:37.196Z,12.97
2022-09-15T06:31:37.231Z,12.97
2022-09-15T06:32:37.177Z,12.97
2022-09-15T06:33:37.165Z,12.98
2022-09-15T06:34:37.146Z,13.01
2022-09-15T06:35:37.134Z,13.04
2022-09-15T06:36:37.165Z,13.08
2022-09-15T06:37:37.113Z,13.11
2022-09-15T06:38:37.095Z,13.12
2022-09-15T06:39:37.077Z,13.13
2022-09-15T06:40:37.065Z,13.19
2022-09-15T06:42:01.363Z,13.18
2022-09-15T06:42:38.046Z,13.25
2022-09-15T06:43:37.028Z,13.27
2022-09-15T06:44:37.022Z,13.30
2022-09-15T06:45:37.005Z,13.38
2022-09-15T06:46:37.058Z,13.41
2022-09-15T06:47:36.975Z,13.44
2022-09-15T06:48:36.980Z,13.44
2022-09-15T06:49:36.944Z,13.52
2022-09-15T06:50:36.936Z,13.54
2022-09-15T06:51:36.945Z,13.56
2022-09-15T06:52:36.925Z,13.62
2022-09-15T06:53:36.895Z,13.63
2022-09-15T06:54:36.894Z,13.65
2022-09-15T06:55:36.873Z,13.70
2022-09-15T06:56:38.261Z,13.70
2022-09-15T06:57:36.842Z,13.74
2022-09-15T06:58:36.835Z,13.75
2022-09-15T06:59:36.815Z,13.77
2022-09-15T07:00:36.804Z,13.78
2022-09-15T07:01:36.834Z,13.79
2022-09-15T07:02:36.882Z,13.81
2022-09-15T07:03:36.828Z,13.83
2022-09-15T07:04:36.764Z,13.83
2022-09-15T07:05:36.748Z,13.83
2022-09-15T07:06:36.734Z,13.83
2022-09-15T07:07:36.724Z,13.81
2022-09-15T07:08:36.726Z,13.83
2022-09-15T07:09:39.860Z,13.79
2022-09-15T07:10:37.644Z,13.79
2022-09-15T07:11:36.676Z,13.78
2022-09-15T07:12:36.654Z,13.78
2022-09-15T07:13:36.726Z,13.79
2022-09-15T07:14:36.708Z,13.79
2022-09-15T07:15:36.717Z,13.81
2022-09-15T07:16:36.642Z,13.83
2022-09-15T07:17:36.604Z,13.83
2022-09-15T07:18:40.947Z,13.86
2022-09-15T07:19:37.574Z,13.87
2022-09-15T07:20:36.560Z,13.89
2022-09-15T07:21:36.614Z,13.92
2022-09-15T07:22:36.711Z,13.95
2022-09-15T07:23:36.553Z,13.96
2022-09-15T07:24:36.513Z,13.97
2022-09-15T07:25:36.506Z,14.00
2022-09-15T07:26:36.521Z,14.03
2022-09-15T07:27:36.513Z,14.05
2022-09-15T07:28:36.443Z,14.08
2022-09-15T07:29:37.901Z,14.11
2022-09-15T07:30:36.423Z,14.14
2022-09-15T07:31:36.461Z,14.20
2022-09-15T07:32:36.434Z,14.23
2022-09-15T07:33:36.383Z,14.26
2022-09-15T07:34:36.435Z,14.29
2022-09-15T07:35:36.350Z,14.30
2022-09-15T07:36:36.342Z,14.33
2022-09-15T07:37:36.430Z,14.36
2022-09-15T07:38:36.347Z,14.36
2022-09-15T07:39:36.293Z,14.45
2022-09-15T07:40:36.344Z,14.53
2022-09-15T07:41:36.452Z,14.53
2022-09-15T07:42:36.343Z,14.62
2022-09-15T07:43:36.299Z,14.65
2022-09-15T07:44:36.251Z,14.69
2022-09-15T07:45:36.276Z,14.70
2022-09-15T07:46:36.229Z,14.70
2022-09-15T07:47:36.386Z,14.72
2022-09-15T07:48:36.199Z,14.70
2022-09-15T07:49:36.154Z,14.70
2022-09-15T07:50:36.211Z,14.69
2022-09-15T07:51:36.154Z,14.68
2022-09-15T07:52:36.292Z,14.69
2022-09-15T07:53:36.183Z,14.69
2022-09-15T07:54:36.145Z,14.70
2022-09-15T07:55:36.099Z,14.69
2022-09-15T07:56:36.098Z,14.72
2022-09-15T07:57:36.059Z,14.72
2022-09-15T07:58:36.045Z,14.73
2022-09-15T07:59:40.565Z,14.78
2022-09-15T08:00:37.079Z,14.81
2022-09-15T08:01:36.238Z,14.84
2022-09-15T08:02:36.012Z,14.84
2022-09-15T08:03:36.033Z,14.84
2022-09-15T08:04:35.974Z,14.88
2022-09-15T08:05:39.426Z,14.94
2022-09-15T08:06:37.583Z,14.94
2022-09-15T08:07:35.993Z,15.00
2022-09-15T08:08:35.917Z,15.02
2022-09-15T08:09:35.903Z,15.03
2022-09-15T08:10:35.907Z,15.11
2022-09-15T08:11:35.890Z,15.14
2022-09-15T08:12:35.865Z,15.18
2022-09-15T08:13:35.845Z,15.22
2022-09-15T08:14:35.863Z,15.25
2022-09-15T08:15:35.823Z,15.29
2022-09-15T08:16:35.917Z,15.35
2022-09-15T08:17:35.833Z,15.39
2022-09-15T08:18:35.793Z,15.42
2022-09-15T08:19:35.769Z,15.47
2022-09-15T08:20:35.774Z,15.49
2022-09-15T08:21:35.752Z,15.49
2022-09-15T08:22:35.735Z,15.57
2022-09-15T08:23:35.724Z,15.55
2022-09-15T08:24:35.707Z,15.57
2022-09-15T08:25:35.691Z,15.62
2022-09-15T08:26:35.694Z,15.64
2022-09-15T08:27:35.668Z,15.65
2022-09-15T08:28:35.654Z,15.64
2022-09-15T08:29:35.652Z,15.70
2022-09-15T08:30:35.632Z,15.68
2022-09-15T08:31:35.682Z,15.70
2022-09-15T08:32:35.603Z,15.72
2022-09-15T08:33:35.583Z,15.72
2022-09-15T08:34:35.572Z,15.73
2022-09-15T08:35:35.554Z,15.73
2022-09-15T08:36:35.575Z,15.77
2022-09-15T08:37:35.533Z,15.82
2022-09-15T08:38:35.523Z,15.80
2022-09-15T08:39:35.506Z,15.83
2022-09-15T08:40:35.508Z,15.83
2022-09-15T08:41:35.497Z,15.86
2022-09-15T08:42:35.470Z,15.84
2022-09-15T08:43:35.453Z,15.90
2022-09-15T08:44:35.435Z,15.88
2022-09-15T08:45:35.437Z,15.95
2022-09-15T08:46:35.480Z,15.94
2022-09-15T08:47:35.393Z,15.97
2022-09-15T08:48:35.383Z,16.00
2022-09-15T08:49:50.960Z,16.02
2022-09-15T08:50:36.377Z,16.04
2022-09-15T08:51:35.367Z,16.04
2022-09-15T08:52:35.352Z,16.05
2022-09-15T08:53:35.325Z,16.05
2022-09-15T08:54:35.318Z,16.09
2022-09-15T08:55:35.293Z,16.09
2022-09-15T08:56:35.293Z,16.08
2022-09-15T08:57:35.272Z,16.08
2022-09-15T08:58:35.271Z,16.05
2022-09-15T08:59:35.242Z,16.09
2022-09-15T09:00:35.233Z,16.09
2022-09-15T09:01:35.311Z,16.12
2022-09-15T09:02:35.234Z,16.10
2022-09-15T09:03:35.192Z,16.12
2022-09-15T09:04:35.192Z,16.08
2022-09-15T09:05:35.162Z,16.05
2022-09-15T09:06:35.162Z,16.04
2022-09-15T09:07:35.142Z,16.01
2022-09-15T09:08:35.170Z,16.01
2022-09-15T09:09:35.112Z,16.04
2022-09-15T09:10:35.103Z,16.05
2022-09-15T09:11:35.095Z,16.08
2022-09-15T09:12:35.082Z,16.04
2022-09-15T09:13:35.827Z,16.02
2022-09-15T09:14:35.051Z,16.05
2022-09-15T09:15:35.079Z,16.08
2022-09-15T09:16:35.032Z,16.10
2022-09-15T09:17:35.003Z,16.17
2022-09-15T09:18:35.000Z,16.26
2022-09-15T09:19:34.983Z,16.26
2022-09-15T09:20:34.969Z,16.36
2022-09-15T09:21:34.970Z,16.41
2022-09-15T09:22:34.944Z,16.47
2022-09-15T09:23:34.922Z,16.53
2022-09-15T09:24:34.917Z,16.53
2022-09-15T09:25:34.901Z,16.57
2022-09-15T09:26:34.903Z,16.64
2022-09-15T09:27:34.882Z,16.66
2022-09-15T09:28:34.863Z,16.68
2022-09-15T09:29:34.842Z,16.69
2022-09-15T09:30:34.938Z,16.76
2022-09-15T09:31:34.829Z,16.79
2022-09-15T09:32:34.803Z,16.81
2022-09-15T09:33:34.794Z,16.84
2022-09-15T09:34:34.792Z,16.89
2022-09-15T09:35:34.765Z,16.93
2022-09-15T09:36:34.770Z,16.99
2022-09-15T09:37:34.749Z,17.08
2022-09-15T09:38:34.751Z,17.19
2022-09-15T09:39:34.729Z,17.15
2022-09-15T09:40:34.748Z,17.33
2022-09-15T09:41:34.702Z,17.36
2022-09-15T09:42:34.684Z,17.41
2022-09-15T09:43:34.672Z,17.42
2022-09-15T09:44:34.660Z,17.44
2022-09-15T09:45:34.651Z,17.45
2022-09-15T09:46:34.853Z,17.46
2022-09-15T09:47:34.603Z,17.48
2022-09-15T09:48:34.604Z,17.49
2022-09-15T09:49:34.609Z,17.46
2022-09-15T09:50:34.583Z,17.49
2022-09-15T09:51:34.610Z,17.63
2022-09-15T09:52:34.572Z,17.79
2022-09-15T09:53:34.532Z,17.80
2022-09-15T09:54:34.523Z,18.23
2022-09-15T09:55:34.501Z,18.50
2022-09-15T09:56:34.512Z,18.75
2022-09-15T09:57:38.562Z,18.95
2022-09-15T09:58:35.473Z,18.95
2022-09-15T09:59:34.470Z,19.29
2022-09-15T10:00:34.462Z,19.44
2022-09-15T10:01:34.490Z,19.52
2022-09-15T10:02:34.412Z,19.62
2022-09-15T10:03:34.392Z,19.63
2022-09-15T10:04:34.453Z,19.85
2022-09-15T10:05:34.374Z,20.47
2022-09-15T10:06:34.375Z,20.77
2022-09-15T10:07:34.345Z,20.96
2022-09-15T10:08:34.342Z,20.97
2022-09-15T10:09:34.338Z,21.37
2022-09-15T10:10:34.313Z,21.46
2022-09-15T10:11:34.319Z,21.43
2022-09-15T10:12:34.293Z,21.37
2022-09-15T10:13:34.263Z,21.22
2022-09-15T10:14:34.255Z,21.22
2022-09-15T10:15:34.253Z,21.14
2022-09-15T10:16:34.348Z,21.09
2022-09-15T10:17:34.212Z,20.90
2022-09-15T10:18:34.215Z,20.78
2022-09-15T10:19:34.203Z,20.72
2022-09-15T10:20:34.173Z,20.65
2022-09-15T10:21:34.184Z,20.65
2022-09-15T10:22:34.163Z,20.51
2022-09-15T10:23:34.136Z,20.41
2022-09-15T10:24:34.135Z,20.26
2022-09-15T10:25:55.005Z,20.18
2022-09-15T10:26:35.113Z,20.06
2022-09-15T10:27:34.129Z,19.89
2022-09-15T10:28:34.083Z,19.89
2022-09-15T10:29:34.056Z,19.81
2022-09-15T10:30:34.116Z,19.85
2022-09-15T10:31:34.137Z,19.84
2022-09-15T10:32:34.029Z,20.19
2022-09-15T10:33:34.013Z,20.21
2022-09-15T10:34:34.003Z,20.88
2022-09-15T10:35:34.005Z,20.90
2022-09-15T10:36:33.974Z,21.15
2022-09-15T10:37:33.995Z,21.25
2022-09-15T10:38:33.968Z,21.32
2022-09-15T10:39:33.947Z,21.32
2022-09-15T10:40:33.933Z,21.62
2022-09-15T10:41:33.982Z,21.76
2022-09-15T10:42:33.887Z,21.75
2022-09-15T10:43:33.923Z,22.11
2022-09-15T10:44:33.864Z,22.13
2022-09-15T10:45:33.923Z,22.14
2022-09-15T10:46:37.586Z,21.96
2022-09-15T10:47:34.824Z,21.96
2022-09-15T10:48:33.815Z,21.43
2022-09-15T10:49:33.814Z,21.15
2022-09-15T10:50:33.800Z,21.14
2022-09-15T10:51:33.794Z,20.80
2022-09-15T10:52:33.765Z,20.63
2022-09-15T10:53:33.747Z,20.52
2022-09-15T10:54:33.734Z,20.48
2022-09-15T10:55:51.706Z,20.48
2022-09-15T10:56:34.714Z,20.47
2022-09-15T10:57:33.708Z,20.34
2022-09-15T10:58:33.693Z,20.34
2022-09-15T10:59:33.676Z,20.22
2022-09-15T11:00:33.721Z,20.18
2022-09-15T11:01:33.665Z,20.10
2022-09-15T11:02:33.702Z,20.06
2022-09-15T11:03:33.619Z,20.06
2022-09-15T11:04:33.606Z,20.00
2022-09-15T11:05:33.604Z,19.96
2022-09-15T11:06:33.584Z,19.91
2022-09-15T11:07:33.564Z,19.86
2022-09-15T11:08:33.548Z,19.82
2022-09-15T11:09:33.545Z,19.74
2022-09-15T11:10:33.525Z,19.71
2022-09-15T11:11:33.524Z,19.64
2022-09-15T11:12:33.495Z,19.62
2022-09-15T11:13:33.485Z,19.63
2022-09-15T11:14:33.478Z,19.58
2022-09-15T11:15:33.456Z,19.51
2022-09-15T11:16:33.514Z,19.52
2022-09-15T11:17:33.435Z,19.48
2022-09-15T11:18:33.421Z,19.44
2022-09-15T11:19:33.404Z,19.36
2022-09-15T11:20:33.398Z,19.36
2022-09-15T11:21:33.417Z,19.27
2022-09-15T11:22:33.375Z,19.18
2022-09-15T11:23:33.378Z,19.14
2022-09-15T11:24:33.367Z,19.07
2022-09-15T11:25:33.429Z,18.96
2022-09-15T11:26:33.313Z,18.95
2022-09-15T11:27:33.339Z,18.95
2022-09-15T11:28:33.292Z,18.93
2022-09-15T11:29:33.277Z,18.96
2022-09-15T11:30:33.800Z,18.99
2022-09-15T11:31:33.284Z,18.98
2022-09-15T11:32:33.246Z,18.99
2022-09-15T11:33:33.235Z,19.04
2022-09-15T11:34:33.206Z,19.11
2022-09-15T11:35:33.196Z,19.18
2022-09-15T11:36:33.185Z,19.22
2022-09-15T11:37:33.185Z,19.27
2022-09-15T11:38:33.157Z,19.30
2022-09-15T11:39:33.146Z,19.36
2022-09-15T11:40:33.163Z,19.34
2022-09-15T11:41:33.138Z,19.52
2022-09-15T11:42:33.114Z,19.67
2022-09-15T11:43:33.115Z,19.81
2022-09-15T11:44:33.077Z,19.85
2022-09-15T11:45:33.066Z,19.77
2022-09-15T11:46:33.118Z,19.71
2022-09-15T11:47:33.047Z,19.66
2022-09-15T11:48:33.032Z,19.59
2022-09-15T11:49:33.015Z,19.59
2022-09-15T11:50:32.998Z,19.45
2022-09-15T11:51:33.006Z,19.39
2022-09-15T11:52:32.991Z,19.33
2022-09-15T11:53:32.967Z,19.26
2022-09-15T11:54:32.956Z,19.18
2022-09-15T11:55:33.490Z,19.14
2022-09-15T11:56:32.918Z,19.04
2022-09-15T11:57:32.927Z,19.00
2022-09-15T11:58:32.911Z,18.90
2022-09-15T11:59:33.122Z,18.83
2022-09-15T12:00:32.866Z,18.84
2022-09-15T12:01:32.904Z,18.77
2022-09-15T12:02:33.542Z,18.71
2022-09-15T12:03:32.970Z,18.71
2022-09-15T12:04:32.841Z,18.71
2022-09-15T12:05:32.806Z,18.71
2022-09-15T12:06:32.806Z,18.71
2022-09-15T12:07:32.790Z,18.70
2022-09-15T12:08:32.765Z,18.70
2022-09-15T12:09:32.755Z,18.68
2022-09-15T12:10:32.735Z,18.68
2022-09-15T12:11:32.736Z,18.63
2022-09-15T12:12:32.707Z,18.66
2022-09-15T12:13:32.698Z,18.65
2022-09-15T12:14:32.687Z,18.74
2022-09-15T12:15:32.692Z,18.81
2022-09-15T12:16:32.667Z,18.80
2022-09-15T12:17:32.655Z,18.86
2022-09-15T12:18:39.843Z,19.00
2022-09-15T12:19:33.623Z,19.22
2022-09-15T12:20:32.607Z,19.29
2022-09-15T12:21:32.606Z,19.34
2022-09-15T12:22:32.577Z,19.41
2022-09-15T12:23:32.576Z,19.47
2022-09-15T12:24:32.568Z,19.47
2022-09-15T12:25:32.537Z,19.56
2022-09-15T12:26:32.536Z,19.67
2022-09-15T12:27:32.519Z,19.81
2022-09-15T12:28:32.508Z,19.85
2022-09-15T12:29:32.534Z,19.88
2022-09-15T12:30:32.476Z,19.89
2022-09-15T12:31:32.559Z,19.89
2022-09-15T12:32:32.446Z,19.88
2022-09-15T12:33:32.441Z,19.77
2022-09-15T12:34:32.417Z,19.66
2022-09-15T12:35:32.418Z,19.59
2022-09-15T12:36:32.437Z,19.56
2022-09-15T12:37:32.388Z,19.55
2022-09-15T12:38:32.367Z,19.52
2022-09-15T12:39:32.359Z,19.44
2022-09-15T12:40:32.382Z,19.33
2022-09-15T12:41:32.355Z,19.21
2022-09-15T12:42:32.326Z,19.00
2022-09-15T12:43:32.309Z,18.93
2022-09-15T12:44:32.298Z,18.86
2022-09-15T12:45:32.280Z,18.89
2022-09-15T12:46:32.323Z,18.78
2022-09-15T12:47:32.260Z,18.63
2022-09-15T12:48:32.252Z,18.58
2022-09-15T12:49:32.229Z,18.56
2022-09-15T12:50:32.209Z,18.53
2022-09-15T12:51:32.217Z,18.52
2022-09-15T12:52:32.188Z,18.50